createdAt,value
2022-12-25T00:00:13.813Z,9.278260
2022-12-25T00:01:10.390Z,9.278256
2022-12-25T00:02:09.280Z,9.278157
2022-12-25T00:03:09.417Z,9.278351
2022-12-25T00:04:09.294Z,9.278335
2022-12-25T00:05:09.207Z,9.278219
2022-12-25T00:06:09.199Z,9.278275
2022-12-25T00:07:09.179Z,9.278018
2022-12-25T00:08:09.204Z,9.278129
2022-12-25T00:09:09.144Z,9.278370
2022-12-25T00:10:09.126Z,9.278479
2022-12-25T00:11:10.109Z,9.278315
2022-12-25T00:12:09.104Z,9.278287
2022-12-25T00:13:09.106Z,9.278490
2022-12-25T00:14:09.091Z,9.278489
2022-12-25T00:15:09.034Z,9.278636
2022-12-25T00:16:09.106Z,9.278527
2022-12-25T00:17:08.997Z,9.278139
2022-12-25T00:18:09.011Z,9.278138
2022-12-25T00:19:08.957Z,9.278149
2022-12-25T00:20:08.961Z,9.278127
2022-12-25T00:21:08.926Z,9.278140
2022-12-25T00:22:08.925Z,9.278154
2022-12-25T00:23:08.917Z,9.278166
2022-12-25T00:24:08.870Z,9.278188
2022-12-25T00:25:08.870Z,9.278320
2022-12-25T00:26:08.844Z,9.278347
2022-12-25T00:27:08.839Z,9.278396
2022-12-25T00:28:08.855Z,9.278337
2022-12-25T00:29:08.796Z,9.278337
2022-12-25T00:30:08.767Z,9.278410
2022-12-25T00:31:08.809Z,9.278437
2022-12-25T00:32:08.735Z,9.278478
2022-12-25T00:33:08.773Z,9.278355
2022-12-25T00:34:08.697Z,9.278346
2022-12-25T00:35:08.688Z,9.278387
2022-12-25T00:36:08.681Z,9.278342
2022-12-25T00:37:08.662Z,9.278038
2022-12-25T00:38:08.669Z,9.278204
2022-12-25T00:39:08.622Z,9.278152
2022-12-25T00:40:08.623Z,9.278172
2022-12-25T00:41:08.583Z,9.278234
2022-12-25T00:42:08.570Z,9.278109
2022-12-25T00:43:08.592Z,9.278274
2022-12-25T00:44:08.540Z,9.278241
2022-12-25T00:45:08.516Z,9.278329
2022-12-25T00:46:08.525Z,9.278193
2022-12-25T00:47:08.535Z,9.278124
2022-12-25T00:48:08.498Z,9.278229
2022-12-25T00:49:08.454Z,9.278093
2022-12-25T00:50:08.426Z,9.278233
2022-12-25T00:51:08.408Z,9.278111
2022-12-25T00:52:08.403Z,9.278065
2022-12-25T00:53:08.416Z,9.278111
2022-12-25T00:54:08.368Z,9.278148
2022-12-25T00:55:08.350Z,9.278255
2022-12-25T00:56:08.482Z,9.278189
2022-12-25T00:57:08.520Z,9.278088
2022-12-25T00:58:08.453Z,9.278214
2022-12-25T00:59:08.265Z,9.278082
2022-12-25T01:00:08.277Z,9.278125
2022-12-25T01:01:08.342Z,9.278178
2022-12-25T01:02:08.332Z,9.278138
2022-12-25T01:03:08.300Z,9.278254
2022-12-25T01:04:08.180Z,9.278227
2022-12-25T01:05:08.180Z,9.278143
2022-12-25T01:06:08.144Z,9.278195
2022-12-25T01:07:08.141Z,9.278049
2022-12-25T01:08:08.148Z,9.278129
2022-12-25T01:09:08.102Z,9.278194
2022-12-25T01:10:08.080Z,9.278339
2022-12-25T01:11:08.072Z,9.278204
2022-12-25T01:12:08.038Z,9.278354
2022-12-25T01:13:08.076Z,9.278465
2022-12-25T01:14:08.020Z,9.278501
2022-12-25T01:15:07.993Z,9.278423
2022-12-25T01:16:08.035Z,9.278291
2022-12-25T01:17:07.961Z,9.278216
2022-12-25T01:18:09.820Z,9.278222
2022-12-25T01:19:08.962Z,9.278165
2022-12-25T01:20:07.938Z,9.278105
2022-12-25T01:21:07.891Z,9.278156
2022-12-25T01:22:07.881Z,9.278188
2022-12-25T01:23:08.160Z,9.278150
2022-12-25T01:24:07.863Z,9.278152
2022-12-25T01:25:07.815Z,9.278146
2022-12-25T01:26:07.821Z,9.278058
2022-12-25T01:27:07.795Z,9.278002
2022-12-25T01:28:07.780Z,9.278041
2022-12-25T01:29:07.782Z,9.278106
2022-12-25T01:30:07.734Z,9.278152
2022-12-25T01:31:07.749Z,9.278181
2022-12-25T01:32:08.530Z,9.278242
2022-12-25T01:33:07.677Z,9.278123
2022-12-25T01:34:07.711Z,9.278152
2022-12-25T01:35:07.652Z,9.278239
2022-12-25T01:36:07.618Z,9.278210
2022-12-25T01:37:07.621Z,9.278111
2022-12-25T01:38:07.586Z,9.278080
2022-12-25T01:39:07.604Z,9.278257
2022-12-25T01:40:07.561Z,9.278206
2022-12-25T01:41:07.553Z,9.278431
2022-12-25T01:42:07.520Z,9.278440
2022-12-25T01:43:07.505Z,9.278473
2022-12-25T01:44:07.543Z,9.278323
2022-12-25T01:45:07.475Z,9.278326
2022-12-25T01:46:07.540Z,9.278363
2022-12-25T01:47:07.442Z,9.278394
2022-12-25T01:48:07.463Z,9.278348
2022-12-25T01:49:07.431Z,9.278211
2022-12-25T01:50:07.404Z,9.278275
2022-12-25T01:51:07.375Z,9.278215
2022-12-25T01:52:07.351Z,9.278169
2022-12-25T01:53:07.328Z,9.278206
2022-12-25T01:54:07.331Z,9.278312
2022-12-25T01:55:07.291Z,9.278432
2022-12-25T01:56:07.278Z,9.278460
2022-12-25T01:57:07.261Z,9.278260
2022-12-25T01:58:07.241Z,9.278304
2022-12-25T01:59:07.276Z,9.278213
2022-12-25T02:00:07.214Z,9.278057
2022-12-25T02:01:07.237Z,9.278275
2022-12-25T02:02:07.283Z,9.278348
2022-12-25T02:03:08.216Z,9.278387
2022-12-25T02:04:07.157Z,9.278333
2022-12-25T02:05:07.116Z,9.278274
2022-12-25T02:06:07.119Z,9.278381
2022-12-25T02:07:07.096Z,9.278464
2022-12-25T02:08:07.080Z,9.278549
2022-12-25T02:09:07.091Z,9.278604
2022-12-25T02:10:07.035Z,9.278541
2022-12-25T02:11:07.017Z,9.278433
2022-12-25T02:12:07.006Z,9.278560
2022-12-25T02:13:06.998Z,9.278584
2022-12-25T02:14:07.002Z,9.278267
2022-12-25T02:15:06.957Z,9.278105
2022-12-25T02:16:06.990Z,9.278289
2022-12-25T02:17:06.980Z,9.278276
2022-12-25T02:18:06.887Z,9.278329
2022-12-25T02:19:06.912Z,9.278460
2022-12-25T02:20:06.847Z,9.278602
2022-12-25T02:21:06.860Z,9.278102
2022-12-25T02:22:06.813Z,9.278279
2022-12-25T02:23:06.795Z,9.278274
2022-12-25T02:24:06.821Z,9.278185
2022-12-25T02:25:07.768Z,9.278024
2022-12-25T02:26:06.768Z,9.278166
2022-12-25T02:27:06.743Z,9.278295
2022-12-25T02:28:06.713Z,9.278324
2022-12-25T02:29:06.742Z,9.278359
2022-12-25T02:30:06.674Z,9.278300
2022-12-25T02:31:06.677Z,9.278333
2022-12-25T02:32:06.711Z,9.278331
2022-12-25T02:33:06.635Z,9.278329
2022-12-25T02:34:06.649Z,9.278326
2022-12-25T02:35:06.624Z,9.278336
2022-12-25T02:36:06.583Z,9.278378
2022-12-25T02:37:06.568Z,9.278374
2022-12-25T02:38:06.540Z,9.278365
2022-12-25T02:39:06.578Z,9.278301
2022-12-25T02:40:06.526Z,9.278312
2022-12-25T02:41:06.504Z,9.278279
2022-12-25T02:42:06.484Z,9.278316
2022-12-25T02:43:06.492Z,9.278438
2022-12-25T02:44:06.475Z,9.278406
2022-12-25T02:45:06.447Z,9.278380
2022-12-25T02:46:06.458Z,9.278363
2022-12-25T02:47:06.389Z,9.278362
2022-12-25T02:48:06.388Z,9.278259
2022-12-25T02:49:06.398Z,9.278322
2022-12-25T02:50:06.338Z,9.278322
2022-12-25T02:51:06.318Z,9.278301
2022-12-25T02:52:06.307Z,9.278364
2022-12-25T02:53:06.295Z,9.278356
2022-12-25T02:54:06.296Z,9.278350
2022-12-25T02:55:06.266Z,9.278348
2022-12-25T02:56:06.240Z,9.278360
2022-12-25T02:57:06.215Z,9.278349
2022-12-25T02:58:06.197Z,9.278269
2022-12-25T02:59:06.225Z,9.278048
2022-12-25T03:00:06.173Z,9.278149
2022-12-25T03:01:06.192Z,9.278064
2022-12-25T03:02:06.256Z,9.278220
2022-12-25T03:03:06.176Z,9.278283
2022-12-25T03:04:06.130Z,9.278296
2022-12-25T03:05:06.084Z,9.278251
2022-12-25T03:06:06.079Z,9.278401
2022-12-25T03:07:06.059Z,9.278354
2022-12-25T03:08:06.028Z,9.278331
2022-12-25T03:09:06.055Z,9.278332
2022-12-25T03:10:06.001Z,9.278345
2022-12-25T03:11:05.979Z,9.278347
2022-12-25T03:12:05.959Z,9.278275
2022-12-25T03:13:05.952Z,9.278316
2022-12-25T03:14:05.971Z,9.278368
2022-12-25T03:15:05.920Z,9.278241
2022-12-25T03:16:05.907Z,9.278303
2022-12-25T03:17:05.936Z,9.278146
2022-12-25T03:18:05.868Z,9.278252
2022-12-25T03:19:05.870Z,9.278330
2022-12-25T03:20:05.834Z,9.278389
2022-12-25T03:21:05.848Z,9.278360
2022-12-25T03:22:05.801Z,9.278336
2022-12-25T03:23:05.774Z,9.278295
2022-12-25T03:24:05.810Z,9.278301
2022-12-25T03:25:05.734Z,9.278382
2022-12-25T03:26:05.720Z,9.278296
2022-12-25T03:27:05.734Z,9.278226
2022-12-25T03:28:05.679Z,9.278237
2022-12-25T03:29:05.700Z,9.278341
2022-12-25T03:30:05.659Z,9.278318
2022-12-25T03:31:05.693Z,9.278509
2022-12-25T03:32:05.626Z,9.278169
2022-12-25T03:33:23.276Z,9.278357
2022-12-25T03:34:07.623Z,9.278253
2022-12-25T03:35:06.502Z,9.278327
2022-12-25T03:36:05.549Z,9.278311
2022-12-25T03:37:05.536Z,9.278277
2022-12-25T03:38:05.511Z,9.278213
2022-12-25T03:39:05.524Z,9.278269
2022-12-25T03:40:05.481Z,9.278226
2022-12-25T03:41:05.467Z,9.278289
2022-12-25T03:42:05.535Z,9.278301
2022-12-25T03:43:05.436Z,9.278286
2022-12-25T03:44:05.463Z,9.278180
2022-12-25T03:45:05.392Z,9.278294
2022-12-25T03:46:05.403Z,9.278357
2022-12-25T03:47:05.380Z,9.278433
2022-12-25T03:48:05.356Z,9.278309
2022-12-25T03:49:05.370Z,9.278288
2022-12-25T03:50:05.316Z,9.278328
2022-12-25T03:51:05.303Z,9.278334
2022-12-25T03:52:05.292Z,9.278288
2022-12-25T03:53:05.257Z,9.278337
2022-12-25T03:54:05.246Z,9.278359
2022-12-25T03:55:05.255Z,9.278305
2022-12-25T03:56:05.213Z,9.278264
2022-12-25T03:57:05.195Z,9.278401
2022-12-25T03:58:05.187Z,9.278371
2022-12-25T03:59:05.152Z,9.278443
2022-12-25T04:00:05.188Z,9.278400
2022-12-25T04:01:05.143Z,9.278319
2022-12-25T04:02:05.242Z,9.278233
2022-12-25T04:03:05.110Z,9.278206
2022-12-25T04:04:06.082Z,9.278319
2022-12-25T04:05:05.250Z,9.278234
2022-12-25T04:06:05.036Z,9.278496
2022-12-25T04:07:05.035Z,9.278328
2022-12-25T04:08:05.019Z,9.278200
2022-12-25T04:09:04.994Z,9.278304
2022-12-25T04:10:05.008Z,9.278526
2022-12-25T04:11:04.956Z,9.278198
2022-12-25T04:12:04.951Z,9.277797
2022-12-25T04:13:04.915Z,9.278252
2022-12-25T04:14:04.900Z,9.278374
2022-12-25T04:15:04.992Z,9.278133
2022-12-25T04:16:04.897Z,9.278234
2022-12-25T04:17:04.847Z,9.278138
2022-12-25T04:18:04.829Z,9.278443
2022-12-25T04:19:04.812Z,9.278318
2022-12-25T04:20:04.830Z,9.278650
2022-12-25T04:21:04.776Z,9.278522
2022-12-25T04:22:04.774Z,9.278378
2022-12-25T04:23:04.747Z,9.278403
2022-12-25T04:24:04.735Z,9.278330
2022-12-25T04:25:04.756Z,9.278313
2022-12-25T04:26:04.706Z,9.278233
2022-12-25T04:27:04.680Z,9.278329
2022-12-25T04:28:04.660Z,9.278570
2022-12-25T04:29:04.641Z,9.278645
2022-12-25T04:30:04.670Z,9.278445
2022-12-25T04:31:04.648Z,9.278427
2022-12-25T04:32:04.593Z,9.278414
2022-12-25T04:33:04.581Z,9.278358
2022-12-25T04:34:04.558Z,9.278329
2022-12-25T04:35:04.567Z,9.278266
2022-12-25T04:36:04.531Z,9.278309
2022-12-25T04:37:04.523Z,9.278365
2022-12-25T04:38:04.494Z,9.278226
2022-12-25T04:39:04.481Z,9.278347
2022-12-25T04:40:04.492Z,9.278358
2022-12-25T04:41:04.451Z,9.278357
2022-12-25T04:42:04.427Z,9.278216
2022-12-25T04:43:04.409Z,9.278254
2022-12-25T04:44:04.388Z,9.278282
2022-12-25T04:45:04.418Z,9.278403
2022-12-25T04:46:04.375Z,9.278401
2022-12-25T04:47:10.728Z,9.278108
2022-12-25T04:48:06.341Z,9.278232
2022-12-25T04:49:04.314Z,9.278362
2022-12-25T04:50:04.344Z,9.278434
2022-12-25T04:51:04.277Z,9.278305
2022-12-25T04:52:04.270Z,9.278299
2022-12-25T04:53:04.235Z,9.278253
2022-12-25T04:54:04.233Z,9.278263
2022-12-25T04:55:04.232Z,9.278399
2022-12-25T04:56:04.192Z,9.278272
2022-12-25T04:57:04.187Z,9.278443
2022-12-25T04:58:04.172Z,9.278350
2022-12-25T04:59:04.132Z,9.278351
2022-12-25T05:00:04.171Z,9.278433
2022-12-25T05:01:04.127Z,9.278423
2022-12-25T05:02:04.204Z,9.278397
2022-12-25T05:03:04.215Z,9.278285
2022-12-25T05:04:04.066Z,9.278370
2022-12-25T05:05:04.071Z,9.278375
2022-12-25T05:06:04.069Z,9.278396
2022-12-25T05:07:04.035Z,9.278373
2022-12-25T05:08:03.992Z,9.278293
2022-12-25T05:09:04.021Z,9.278312
2022-12-25T05:10:03.978Z,9.278358
2022-12-25T05:11:03.966Z,9.278405
2022-12-25T05:12:03.926Z,9.278334
2022-12-25T05:13:03.902Z,9.278223
2022-12-25T05:14:03.906Z,9.278385
2022-12-25T05:15:03.914Z,9.278323
2022-12-25T05:16:04.008Z,9.278405
2022-12-25T05:17:03.837Z,9.278378
2022-12-25T05:18:03.847Z,9.278248
2022-12-25T05:19:03.804Z,9.278275
2022-12-25T05:20:03.832Z,9.278412
2022-12-25T05:21:03.776Z,9.278453
2022-12-25T05:22:03.760Z,9.278412
2022-12-25T05:23:03.828Z,9.278334
2022-12-25T05:24:03.734Z,9.278572
2022-12-25T05:25:03.747Z,9.278316
2022-12-25T05:26:03.692Z,9.278383
2022-12-25T05:27:03.705Z,9.278382
2022-12-25T05:28:03.648Z,9.278300
2022-12-25T05:29:03.641Z,9.278272
2022-12-25T05:30:03.652Z,9.278401
2022-12-25T05:31:03.653Z,9.278443
2022-12-25T05:32:03.576Z,9.278443
2022-12-25T05:33:03.573Z,9.278387
2022-12-25T05:34:03.550Z,9.278233
2022-12-25T05:35:03.568Z,9.278278
2022-12-25T05:36:03.570Z,9.278363
2022-12-25T05:37:03.510Z,9.278480
2022-12-25T05:38:03.483Z,9.278339
2022-12-25T05:39:03.464Z,9.278223
2022-12-25T05:40:03.482Z,9.278462
2022-12-25T05:41:03.457Z,9.278320
2022-12-25T05:42:03.430Z,9.278298
2022-12-25T05:43:03.399Z,9.278279
2022-12-25T05:44:03.405Z,9.278232
2022-12-25T05:45:03.398Z,9.278156
2022-12-25T05:46:03.359Z,9.278371
2022-12-25T05:47:03.375Z,9.278279
2022-12-25T05:48:03.333Z,9.278285
2022-12-25T05:49:03.291Z,9.278339
2022-12-25T05:50:03.327Z,9.278293
2022-12-25T05:51:03.268Z,9.278255
2022-12-25T05:52:03.244Z,9.278264
2022-12-25T05:53:08.046Z,9.278224
2022-12-25T05:54:05.216Z,9.278407
2022-12-25T05:55:03.238Z,9.278493
2022-12-25T05:56:03.202Z,9.278395
2022-12-25T05:57:03.176Z,9.278209
2022-12-25T05:58:03.155Z,9.278367
2022-12-25T05:59:03.133Z,9.278426
2022-12-25T06:00:03.151Z,9.278425
2022-12-25T06:01:03.103Z,9.278340
2022-12-25T06:02:03.208Z,9.278162
2022-12-25T06:03:04.201Z,9.278261
2022-12-25T06:04:08.420Z,9.278241
2022-12-25T06:05:05.073Z,9.278242
2022-12-25T06:06:03.010Z,9.278198
2022-12-25T06:07:02.994Z,9.278174
2022-12-25T06:08:02.978Z,9.278276
2022-12-25T06:09:02.955Z,9.278163
2022-12-25T06:10:03.007Z,9.278231
2022-12-25T06:11:02.918Z,9.278493
2022-12-25T06:12:02.933Z,9.278295
2022-12-25T06:13:02.890Z,9.278300
2022-12-25T06:14:02.902Z,9.278418
2022-12-25T06:15:02.902Z,9.278522
2022-12-25T06:16:02.910Z,9.278693
2022-12-25T06:17:02.849Z,9.278439
2022-12-25T06:18:02.813Z,9.278432
2022-12-25T06:19:02.790Z,9.278425
2022-12-25T06:20:02.795Z,9.278358
2022-12-25T06:21:02.749Z,9.278341
2022-12-25T06:22:02.732Z,9.278368
2022-12-25T06:23:02.737Z,9.278342
2022-12-25T06:24:02.788Z,9.278277
2022-12-25T06:25:02.717Z,9.278330
2022-12-25T06:26:02.663Z,9.278385
2022-12-25T06:27:02.642Z,9.278503
2022-12-25T06:28:02.632Z,9.278428
2022-12-25T06:29:02.622Z,9.278401
2022-12-25T06:30:02.633Z,9.278321
2022-12-25T06:31:02.611Z,9.278305
2022-12-25T06:32:02.657Z,9.278390
2022-12-25T06:33:02.535Z,9.278322
2022-12-25T06:34:02.527Z,9.278352
2022-12-25T06:35:02.509Z,9.278395
2022-12-25T06:36:02.518Z,9.278258
2022-12-25T06:37:02.490Z,9.278473
2022-12-25T06:38:02.451Z,9.278516
2022-12-25T06:39:02.453Z,9.278406
2022-12-25T06:40:02.439Z,9.278156
2022-12-25T06:41:02.432Z,9.277971
2022-12-25T06:42:02.388Z,9.278098
2022-12-25T06:43:02.372Z,9.278257
2022-12-25T06:44:02.370Z,9.278234
2022-12-25T06:45:02.338Z,9.278420
2022-12-25T06:46:02.428Z,9.278512
2022-12-25T06:47:02.317Z,9.278542
2022-12-25T06:48:02.304Z,9.278440
2022-12-25T06:49:02.265Z,9.278371
2022-12-25T06:50:02.267Z,9.278604
2022-12-25T06:51:02.263Z,9.278482
2022-12-25T06:52:02.222Z,9.278249
2022-12-25T06:53:02.198Z,9.278312
2022-12-25T06:54:02.185Z,9.278281
2022-12-25T06:55:02.181Z,9.278177
2022-12-25T06:56:02.209Z,9.278162
2022-12-25T06:57:02.136Z,9.278279
2022-12-25T06:58:02.125Z,9.278421
2022-12-25T06:59:02.093Z,9.278388
2022-12-25T07:00:02.131Z,9.278338
2022-12-25T07:01:02.159Z,9.278288
2022-12-25T07:02:02.198Z,9.278250
2022-12-25T07:03:02.125Z,9.278278
2022-12-25T07:04:02.006Z,9.278307
2022-12-25T07:05:02.003Z,9.278409
2022-12-25T07:06:02.021Z,9.278532
2022-12-25T07:07:08.306Z,9.278372
2022-12-25T07:08:03.948Z,9.278318
2022-12-25T07:09:01.933Z,9.278285
2022-12-25T07:10:01.918Z,9.278417
2022-12-25T07:11:01.939Z,9.278262
2022-12-25T07:12:01.863Z,9.278297
2022-12-25T07:13:01.857Z,9.278341
2022-12-25T07:14:01.854Z,9.278109
2022-12-25T07:15:01.819Z,9.278247
2022-12-25T07:16:01.882Z,9.278336
2022-12-25T07:17:01.847Z,9.278309
2022-12-25T07:18:01.789Z,9.278370
2022-12-25T07:19:01.770Z,9.278362
2022-12-25T07:20:01.749Z,9.278392
2022-12-25T07:21:01.748Z,9.278477
2022-12-25T07:22:01.705Z,9.278449
2022-12-25T07:23:01.686Z,9.278277
2022-12-25T07:24:01.672Z,9.278307
2022-12-25T07:25:01.665Z,9.278440
2022-12-25T07:26:01.681Z,9.278453
2022-12-25T07:27:01.628Z,9.278436
2022-12-25T07:28:01.602Z,9.278470
2022-12-25T07:29:01.606Z,9.278205
2022-12-25T07:30:01.565Z,9.278184
2022-12-25T07:31:01.582Z,9.278177
2022-12-25T07:32:01.603Z,9.278328
2022-12-25T07:33:01.526Z,9.278404
2022-12-25T07:34:01.502Z,9.278418
2022-12-25T07:35:01.508Z,9.278285
2022-12-25T07:36:01.502Z,9.278288
2022-12-25T07:37:01.457Z,9.278515
2022-12-25T07:38:01.434Z,9.278314
2022-12-25T07:39:01.453Z,9.278334
2022-12-25T07:40:01.523Z,9.278223
2022-12-25T07:41:01.427Z,9.278229
2022-12-25T07:42:01.363Z,9.278233
2022-12-25T07:43:01.353Z,9.278416
2022-12-25T07:44:01.329Z,9.278342
2022-12-25T07:45:01.311Z,9.278262
2022-12-25T07:46:01.393Z,9.278336
2022-12-25T07:47:01.351Z,9.278315
2022-12-25T07:48:05.169Z,9.278352
2022-12-25T07:49:03.237Z,9.278508
2022-12-25T07:50:01.256Z,9.278434
2022-12-25T07:51:01.251Z,9.278375
2022-12-25T07:52:01.226Z,9.278346
2022-12-25T07:53:01.178Z,9.278233
2022-12-25T07:54:01.176Z,9.278262
2022-12-25T07:55:01.214Z,9.278203
2022-12-25T07:56:01.220Z,9.278262
2022-12-25T07:57:01.111Z,9.278138
2022-12-25T07:58:01.101Z,9.278397
2022-12-25T07:59:01.114Z,9.278094
2022-12-25T08:00:01.074Z,9.278127
2022-12-25T08:01:01.215Z,9.278358
2022-12-25T08:02:01.317Z,9.278247
2022-12-25T08:03:01.205Z,9.278218
2022-12-25T08:04:01.166Z,9.278327
2022-12-25T08:05:00.984Z,9.278271
2022-12-25T08:06:01.010Z,9.278263
2022-12-25T08:07:00.942Z,9.278167
2022-12-25T08:08:00.947Z,9.278310
2022-12-25T08:09:00.924Z,9.278130
2022-12-25T08:10:00.891Z,9.278092
2022-12-25T08:11:00.964Z,9.278290
2022-12-25T08:12:00.883Z,9.278356
2022-12-25T08:13:00.844Z,9.278202
2022-12-25T08:14:00.837Z,9.278215
2022-12-25T08:15:00.803Z,9.278275
2022-12-25T08:16:00.820Z,9.278302
2022-12-25T08:17:00.841Z,9.278267
2022-12-25T08:18:00.742Z,9.278252
2022-12-25T08:19:00.734Z,9.278262
2022-12-25T08:20:00.735Z,9.278280
2022-12-25T08:21:00.745Z,9.278285
2022-12-25T08:22:00.700Z,9.278211
2022-12-25T08:23:00.667Z,9.278103
2022-12-25T08:24:00.654Z,9.278193
2022-12-25T08:25:00.630Z,9.278070
2022-12-25T08:26:05.014Z,9.278050
2022-12-25T08:27:02.610Z,9.278279
2022-12-25T08:28:00.577Z,9.278191
2022-12-25T08:29:00.568Z,9.278250
2022-12-25T08:30:00.561Z,9.278284
2022-12-25T08:31:00.594Z,9.278380
2022-12-25T08:32:00.522Z,9.278382
2022-12-25T08:33:00.618Z,9.278135
2022-12-25T08:34:00.474Z,9.278349
2022-12-25T08:35:00.481Z,9.278316
2022-12-25T08:36:00.481Z,9.278301
2022-12-25T08:37:00.419Z,9.278324
2022-12-25T08:38:00.413Z,9.278282
2022-12-25T08:39:03.307Z,9.278352
2022-12-25T08:40:01.407Z,9.278332
2022-12-25T08:41:00.395Z,9.278186
2022-12-25T08:42:00.334Z,9.278200
2022-12-25T08:43:00.427Z,9.278316
2022-12-25T08:44:00.311Z,9.278292
2022-12-25T08:45:00.284Z,9.278258
2022-12-25T08:46:00.341Z,9.278280
2022-12-25T08:47:00.253Z,9.278255
2022-12-25T08:48:00.219Z,9.278163
2022-12-25T08:49:00.245Z,9.278125
2022-12-25T08:50:00.228Z,9.278223
2022-12-25T08:51:00.228Z,9.278163
2022-12-25T08:52:00.172Z,9.278188
2022-12-25T08:53:00.349Z,9.278167
2022-12-25T08:54:00.171Z,9.278402
2022-12-25T08:55:00.123Z,9.278464
2022-12-25T08:56:00.262Z,9.278240
2022-12-25T08:57:02.890Z,9.277679
2022-12-25T08:58:01.067Z,9.277872
2022-12-25T08:59:00.038Z,9.277986
2022-12-25T09:00:00.032Z,9.278225
2022-12-25T09:01:00.144Z,9.278370
2022-12-25T09:02:00.072Z,9.278664
2022-12-25T09:03:00.118Z,9.278679
2022-12-25T09:03:59.958Z,9.277905
2022-12-25T09:04:59.957Z,9.278063
2022-12-25T09:05:59.970Z,9.277972
2022-12-25T09:06:59.930Z,9.277366
2022-12-25T09:07:59.894Z,9.277252
2022-12-25T09:08:59.861Z,9.277567
2022-12-25T09:09:59.846Z,9.277983
2022-12-25T09:10:59.880Z,9.277763
2022-12-25T09:11:59.827Z,9.277740
2022-12-25T09:12:59.965Z,9.277769
2022-12-25T09:13:59.780Z,9.277973
2022-12-25T09:14:59.793Z,9.278227
2022-12-25T09:15:59.857Z,9.277871
2022-12-25T09:16:59.735Z,9.278024
2022-12-25T09:17:59.724Z,9.277823
2022-12-25T09:18:59.695Z,9.277782
2022-12-25T09:19:59.674Z,9.277793
2022-12-25T09:20:59.685Z,9.277935
2022-12-25T09:21:59.662Z,9.278082
2022-12-25T09:22:59.673Z,9.277964
2022-12-25T09:23:59.632Z,9.277946
2022-12-25T09:24:59.621Z,9.277925
2022-12-25T09:25:59.642Z,9.277917
2022-12-25T09:26:59.582Z,9.277957
2022-12-25T09:27:59.556Z,9.277847
2022-12-25T09:28:59.537Z,9.277864
2022-12-25T09:29:59.508Z,9.278034
2022-12-25T09:30:59.575Z,9.278156
2022-12-25T09:31:59.479Z,9.278149
2022-12-25T09:32:59.446Z,9.278166
2022-12-25T09:33:59.472Z,9.278184
2022-12-25T09:34:59.426Z,9.278170
2022-12-25T09:35:59.460Z,9.278164
2022-12-25T09:36:59.417Z,9.278028
2022-12-25T09:37:59.384Z,9.278101
2022-12-25T09:38:59.363Z,9.277992
2022-12-25T09:39:59.337Z,9.278100
2022-12-25T09:40:59.404Z,9.278163
2022-12-25T09:41:59.311Z,9.278051
2022-12-25T09:42:59.449Z,9.278335
2022-12-25T09:43:59.306Z,9.278185
2022-12-25T09:44:59.263Z,9.278072
2022-12-25T09:45:59.278Z,9.278002
2022-12-25T09:46:59.309Z,9.277897
2022-12-25T09:47:59.241Z,9.278170
2022-12-25T09:48:59.189Z,9.278260
2022-12-25T09:49:59.163Z,9.278188
2022-12-25T09:50:59.191Z,9.278102
2022-12-25T09:51:59.199Z,9.278263
2022-12-25T09:52:59.141Z,9.278238
2022-12-25T09:53:59.095Z,9.278249
2022-12-25T09:54:59.108Z,9.278177
2022-12-25T09:55:59.062Z,9.278184
2022-12-25T09:56:59.091Z,9.277999
2022-12-25T09:57:59.033Z,9.277917
2022-12-25T09:58:59.011Z,9.277884
2022-12-25T09:59:58.994Z,9.277854
2022-12-25T10:00:58.982Z,9.277843
2022-12-25T10:01:59.228Z,9.277661
2022-12-25T10:02:59.239Z,9.278129
2022-12-25T10:03:58.989Z,9.277919
2022-12-25T10:04:58.910Z,9.278332
2022-12-25T10:05:58.913Z,9.278417
2022-12-25T10:06:58.920Z,9.278149
2022-12-25T10:07:58.873Z,9.278253
2022-12-25T10:08:58.853Z,9.278190
2022-12-25T10:09:58.823Z,9.278010
2022-12-25T10:10:58.807Z,9.278095
2022-12-25T10:11:58.847Z,9.277910
2022-12-25T10:12:58.775Z,9.278279
2022-12-25T10:13:58.745Z,9.278288
2022-12-25T10:14:58.779Z,9.278298
2022-12-25T10:15:58.760Z,9.278244
2022-12-25T10:16:58.728Z,9.278347
2022-12-25T10:17:58.683Z,9.278267
2022-12-25T10:18:58.686Z,9.278288
2022-12-25T10:19:58.670Z,9.278318
2022-12-25T10:20:58.620Z,9.278299
2022-12-25T10:21:58.671Z,9.278279
2022-12-25T10:22:58.602Z,9.278224
2022-12-25T10:23:58.620Z,9.278182
2022-12-25T10:24:58.564Z,9.278231
2022-12-25T10:25:58.577Z,9.278193
2022-12-25T10:26:58.556Z,9.278172
2022-12-25T10:27:58.497Z,9.278140
2022-12-25T10:28:58.532Z,9.278154
2022-12-25T10:29:58.499Z,9.278379
2022-12-25T10:30:58.524Z,9.278404
2022-12-25T10:31:58.474Z,9.278318
2022-12-25T10:32:58.439Z,9.278170
2022-12-25T10:33:58.416Z,9.278140
2022-12-25T10:34:58.403Z,9.278238
2022-12-25T10:35:58.370Z,9.278340
2022-12-25T10:36:58.408Z,9.278238
2022-12-25T10:37:58.352Z,9.278403
2022-12-25T10:38:58.331Z,9.278105
2022-12-25T10:39:58.310Z,9.278155
2022-12-25T10:40:58.284Z,9.278023
2022-12-25T10:41:58.298Z,9.277821
2022-12-25T10:42:58.251Z,9.278148
2022-12-25T10:43:58.243Z,9.278234
2022-12-25T10:44:58.221Z,9.278181
2022-12-25T10:45:58.262Z,9.278188
2022-12-25T10:46:58.294Z,9.278202
2022-12-25T10:48:04.959Z,9.278274
2022-12-25T10:49:00.160Z,9.278218
2022-12-25T10:49:58.292Z,9.278226
2022-12-25T10:50:58.105Z,9.277970
2022-12-25T10:51:58.153Z,9.278149
2022-12-25T10:52:58.073Z,9.278300
2022-12-25T10:53:58.069Z,9.278321
2022-12-25T10:54:58.066Z,9.278216
2022-12-25T10:55:58.026Z,9.278166
2022-12-25T10:56:58.063Z,9.278124
2022-12-25T10:57:58.157Z,9.278184
2022-12-25T10:58:57.971Z,9.278174
2022-12-25T10:59:57.963Z,9.278170
2022-12-25T11:00:57.956Z,9.278115
2022-12-25T11:01:58.093Z,9.278346
2022-12-25T11:02:58.205Z,9.278272
2022-12-25T11:03:57.959Z,9.278185
2022-12-25T11:04:57.871Z,9.278155
2022-12-25T11:05:57.858Z,9.278159
2022-12-25T11:06:57.881Z,9.278248
2022-12-25T11:07:57.843Z,9.278119
2022-12-25T11:08:57.801Z,9.278127
2022-12-25T11:10:02.685Z,9.278222
2022-12-25T11:10:59.768Z,9.278215
2022-12-25T11:11:57.783Z,9.278244
2022-12-25T11:12:57.744Z,9.278173
2022-12-25T11:13:57.735Z,9.277905
2022-12-25T11:14:57.751Z,9.277990
2022-12-25T11:15:57.741Z,9.278208
2022-12-25T11:16:57.705Z,9.278209
2022-12-25T11:17:57.657Z,9.278202
2022-12-25T11:18:57.631Z,9.277802
2022-12-25T11:19:57.614Z,9.278322
2022-12-25T11:20:57.607Z,9.278343
2022-12-25T11:21:57.627Z,9.278085
2022-12-25T11:22:57.564Z,9.277968
2022-12-25T11:23:57.549Z,9.277783
2022-12-25T11:24:57.559Z,9.277782
2022-12-25T11:25:57.519Z,9.278069
2022-12-25T11:26:57.530Z,9.278197
2022-12-25T11:27:57.486Z,9.278292
2022-12-25T11:28:57.477Z,9.278071
2022-12-25T11:29:57.474Z,9.278190
2022-12-25T11:30:57.486Z,9.278214
2022-12-25T11:31:57.443Z,9.278234
2022-12-25T11:32:57.393Z,9.278304
2022-12-25T11:33:57.397Z,9.278157
2022-12-25T11:34:57.370Z,9.278228
2022-12-25T11:35:57.339Z,9.278346
2022-12-25T11:36:57.370Z,9.278502
2022-12-25T11:37:57.322Z,9.278290
2022-12-25T11:38:57.300Z,9.278224
2022-12-25T11:39:57.290Z,9.278064
2022-12-25T11:40:57.254Z,9.277899
2022-12-25T11:41:57.274Z,9.277848
2022-12-25T11:42:58.243Z,9.278061
2022-12-25T11:43:57.217Z,9.278183